Terminal Aerodrome Forecast
Issued by NWS North Platte, NE

Home | Current Version | Previous Version | Graphics & Text | Print | Product List | Glossary On
Versions: 1 2 3 4 5 6 7 8 9 10 11 12 13 14 15 16
000
FTUS43 KLBF 200523
TAFVTN
TAF
KVTN 200523Z 2006/2106 00000KT P6SM BKN250
     FM201900 35006KT P6SM OVC200
     FM210000 02008KT P6SM BKN045
     FM210500 01006KT P6SM OVC025=

USA.gov is the U.S. government's official web portal to all federal, state and local government web resources and services.